createdAt,value
2018-11-02T00:00:28.423Z,99.90
2018-11-02T00:02:58.292Z,99.90
2018-11-02T00:05:28.164Z,99.90
2018-11-02T00:07:58.217Z,99.90
2018-11-02T00:10:28.151Z,99.90
2018-11-02T00:12:58.816Z,99.90
2018-11-02T00:15:28.685Z,99.90
2018-11-02T00:17:58.931Z,99.90
2018-11-02T00:20:28.889Z,99.90
2018-11-02T00:22:58.868Z,99.90
2018-11-02T00:25:28.857Z,99.90
2018-11-02T00:27:58.769Z,99.90
2018-11-02T00:30:28.479Z,99.90
2018-11-02T00:32:58.397Z,99.90
2018-11-02T00:35:28.042Z,99.90
2018-11-02T00:37:57.849Z,99.90
2018-11-02T00:40:27.686Z,99.90
2018-11-02T00:42:57.445Z,99.90
2018-11-02T00:45:27.258Z,99.90
2018-11-02T00:47:57.168Z,99.90
2018-11-02T00:50:26.991Z,99.90
2018-11-02T00:52:56.669Z,99.90
2018-11-02T00:55:26.403Z,99.90
2018-11-02T00:57:56.259Z,99.90
2018-11-02T01:00:26.133Z,99.90
2018-11-02T01:02:56.034Z,99.90
2018-11-02T01:05:26.000Z,99.90
2018-11-02T01:07:55.826Z,99.90
2018-11-02T01:10:25.693Z,99.90
2018-11-02T01:12:55.850Z,99.90
2018-11-02T01:15:25.805Z,99.90
2018-11-02T01:17:55.578Z,99.90
2018-11-02T01:20:25.414Z,99.90
2018-11-02T01:22:55.528Z,99.90
2018-11-02T01:25:25.430Z,99.90
2018-11-02T01:27:55.224Z,99.90
2018-11-02T01:30:24.901Z,99.90
2018-11-02T01:32:54.686Z,99.90
2018-11-02T01:35:24.411Z,99.90
2018-11-02T01:37:54.246Z,99.90
2018-11-02T01:40:23.969Z,99.90
2018-11-02T01:42:53.803Z,99.90
2018-11-02T01:45:23.684Z,99.90
2018-11-02T01:47:53.462Z,99.90
2018-11-02T01:50:23.155Z,99.90
2018-11-02T01:52:53.122Z,99.90
2018-11-02T01:55:22.822Z,99.90
2018-11-02T01:57:52.635Z,99.90
2018-11-02T02:00:22.428Z,99.90
2018-11-02T02:02:52.093Z,99.90
2018-11-02T02:05:21.949Z,99.90
2018-11-02T02:12:49.142Z,99.90
2018-11-02T02:15:18.797Z,99.90
2018-11-02T02:17:48.491Z,99.90
2018-11-02T02:20:18.295Z,99.90
2018-11-02T02:22:48.435Z,99.90
2018-11-02T02:28:21.203Z,99.90
2018-11-02T02:30:50.938Z,99.90
2018-11-02T02:33:20.615Z,99.90
2018-11-02T02:35:50.352Z,99.90
2018-11-02T02:38:19.908Z,99.90
2018-11-02T02:40:49.682Z,99.90
2018-11-02T02:43:19.448Z,99.90
2018-11-02T02:45:49.213Z,99.90
2018-11-02T02:48:19.090Z,99.90
2018-11-02T02:50:48.673Z,99.90
2018-11-02T02:53:18.279Z,99.90
2018-11-02T02:55:47.994Z,99.90
2018-11-02T02:58:17.688Z,99.90
2018-11-02T03:00:47.288Z,99.90
2018-11-02T03:03:16.952Z,99.90
2018-11-02T03:05:46.639Z,99.90
2018-11-02T03:08:16.352Z,99.90
2018-11-02T03:10:46.057Z,99.90
2018-11-02T03:13:15.923Z,99.90
2018-11-02T03:15:45.708Z,99.90
2018-11-02T03:18:15.404Z,99.90
2018-11-02T03:20:45.131Z,99.90
2018-11-02T03:23:14.884Z,99.90
2018-11-02T03:25:44.755Z,99.90
2018-11-02T03:28:14.553Z,99.90
2018-11-02T03:30:44.099Z,99.90
2018-11-02T03:33:13.631Z,99.90
2018-11-02T03:35:43.265Z,99.90
2018-11-02T03:38:12.893Z,99.90
2018-11-02T03:40:42.548Z,99.90
2018-11-02T03:43:12.125Z,99.90
2018-11-02T03:45:41.788Z,99.90
2018-11-02T03:48:11.478Z,99.90
2018-11-02T03:50:41.128Z,99.90
2018-11-02T03:53:11.042Z,99.90
2018-11-02T03:55:41.389Z,99.90
2018-11-02T03:58:11.852Z,99.90
2018-11-02T04:00:41.399Z,99.90
2018-11-02T04:03:11.172Z,99.90
2018-11-02T04:05:40.913Z,99.90
2018-11-02T04:08:10.770Z,99.90
2018-11-02T04:10:40.377Z,99.90
2018-11-02T04:13:10.008Z,99.90
2018-11-02T04:15:39.638Z,99.90
2018-11-02T04:18:09.359Z,99.90
2018-11-02T04:20:39.040Z,99.90
2018-11-02T04:23:08.855Z,99.90
2018-11-02T04:25:38.460Z,99.90
2018-11-02T04:28:08.088Z,99.90
2018-11-02T04:30:37.761Z,99.90
2018-11-02T04:33:07.514Z,99.90
2018-11-02T04:35:37.214Z,99.90
2018-11-02T04:38:07.059Z,99.90
2018-11-02T04:40:36.712Z,99.90
2018-11-02T04:43:06.635Z,99.90
2018-11-02T04:45:40.141Z,99.90
2018-11-02T04:48:12.890Z,99.90
2018-11-02T04:50:42.703Z,99.90
2018-11-02T04:53:12.335Z,99.90
2018-11-02T04:55:42.059Z,99.90
2018-11-02T04:58:12.277Z,99.90
2018-11-02T05:00:43.055Z,99.90
2018-11-02T05:03:12.662Z,99.90
2018-11-02T05:05:42.355Z,99.90
2018-11-02T05:08:12.184Z,99.90
2018-11-02T05:10:42.009Z,99.90
2018-11-02T05:13:11.731Z,99.90
2018-11-02T05:15:41.453Z,99.90
2018-11-02T05:18:11.198Z,99.90
2018-11-02T05:20:40.933Z,99.90
2018-11-02T05:23:10.564Z,99.90
2018-11-02T05:25:40.265Z,99.90
2018-11-02T05:28:09.899Z,99.90
2018-11-02T05:30:39.478Z,99.90
2018-11-02T05:33:09.170Z,99.90
2018-11-02T05:35:38.834Z,99.90
2018-11-02T05:38:08.763Z,99.90
2018-11-02T05:40:38.465Z,99.90
2018-11-02T05:43:08.098Z,99.90
2018-11-02T05:45:37.786Z,99.90
2018-11-02T05:48:07.820Z,99.90
2018-11-02T05:50:38.291Z,99.90
2018-11-02T05:58:05.299Z,99.90
2018-11-02T06:00:35.426Z,99.90
2018-11-02T06:03:05.616Z,99.90
2018-11-02T06:05:35.394Z,99.90
2018-11-02T06:08:05.147Z,99.90
2018-11-02T06:10:34.808Z,99.90
2018-11-02T06:13:04.503Z,99.90
2018-11-02T06:15:34.295Z,99.90
2018-11-02T06:18:04.224Z,99.90
2018-11-02T06:20:34.000Z,99.90
2018-11-02T06:23:03.844Z,99.90
2018-11-02T06:25:33.459Z,99.90
2018-11-02T06:28:03.085Z,99.90
2018-11-02T06:30:32.795Z,99.90
2018-11-02T06:33:02.397Z,99.90
2018-11-02T06:35:32.219Z,99.90
2018-11-02T06:38:01.915Z,99.90
2018-11-02T06:40:32.030Z,99.90
2018-11-02T06:43:01.684Z,99.90
2018-11-02T06:45:31.568Z,99.90
2018-11-02T06:48:01.199Z,99.90
2018-11-02T06:50:30.902Z,99.90
2018-11-02T06:53:00.731Z,99.90
2018-11-02T06:55:30.327Z,99.90
2018-11-02T06:57:59.964Z,99.90
2018-11-02T07:00:29.663Z,99.90
2018-11-02T07:02:59.344Z,99.90
2018-11-02T07:05:29.093Z,99.90
2018-11-02T07:07:58.655Z,99.90
2018-11-02T07:10:28.123Z,99.90
2018-11-02T07:12:57.834Z,99.90
2018-11-02T07:15:27.468Z,99.90
2018-11-02T07:17:57.044Z,99.90
2018-11-02T07:20:26.579Z,99.90
2018-11-02T07:22:56.289Z,99.90
2018-11-02T07:25:26.980Z,99.90
2018-11-02T07:27:56.597Z,99.90
2018-11-02T07:30:26.163Z,99.90
2018-11-02T07:32:55.734Z,99.90
2018-11-02T07:35:25.359Z,99.90
2018-11-02T07:37:54.964Z,99.90
2018-11-02T07:40:27.130Z,99.90
2018-11-02T07:42:56.722Z,99.90
2018-11-02T07:45:26.281Z,99.90
2018-11-02T07:47:55.839Z,99.90
2018-11-02T07:50:25.535Z,99.90
2018-11-02T07:52:55.149Z,99.90
2018-11-02T07:55:24.860Z,99.90
2018-11-02T07:57:54.406Z,99.90
2018-11-02T08:00:24.094Z,99.90
2018-11-02T08:02:53.807Z,99.90
2018-11-02T08:05:23.390Z,99.90
2018-11-02T08:07:56.740Z,99.90
2018-11-02T08:10:26.461Z,99.90
2018-11-02T08:13:11.362Z,99.90
2018-11-02T08:15:40.983Z,99.90
2018-11-02T08:18:10.666Z,99.90
2018-11-02T08:20:42.781Z,99.90
2018-11-02T08:23:12.463Z,99.90
2018-11-02T08:25:44.113Z,99.90
2018-11-02T08:28:15.223Z,99.90
2018-11-02T08:30:44.930Z,99.90
2018-11-02T08:33:14.678Z,99.90
2018-11-02T08:35:44.244Z,99.90
2018-11-02T08:38:13.774Z,99.90
2018-11-02T08:40:44.588Z,99.90
2018-11-02T08:43:14.216Z,99.90
2018-11-02T08:45:43.851Z,99.90
2018-11-02T08:48:14.840Z,99.90
2018-11-02T08:50:44.679Z,99.90
2018-11-02T08:53:14.417Z,99.90
2018-11-02T08:55:44.270Z,99.90
2018-11-02T08:58:14.062Z,99.90
2018-11-02T09:00:43.869Z,99.90
2018-11-02T09:03:13.412Z,99.90
2018-11-02T09:05:42.971Z,99.90
2018-11-02T09:08:12.550Z,99.90
2018-11-02T09:10:44.596Z,99.90
2018-11-02T09:13:14.616Z,99.90
2018-11-02T09:15:44.395Z,99.90
2018-11-02T09:18:14.131Z,99.90
2018-11-02T09:20:43.967Z,99.90
2018-11-02T09:23:13.782Z,99.90
2018-11-02T09:25:43.575Z,99.90
2018-11-02T09:28:13.304Z,99.90
2018-11-02T09:30:43.176Z,99.90
2018-11-02T09:33:13.006Z,99.90
2018-11-02T09:35:42.751Z,99.90
2018-11-02T09:38:12.400Z,99.90
2018-11-02T09:40:42.180Z,99.90
2018-11-02T09:43:11.961Z,99.90
2018-11-02T09:45:41.969Z,99.90
2018-11-02T09:48:11.747Z,99.90
2018-11-02T09:50:41.466Z,99.90
2018-11-02T09:53:11.182Z,99.90
2018-11-02T09:55:41.426Z,99.90
2018-11-02T09:58:11.145Z,99.90
2018-11-02T10:00:41.080Z,99.90
2018-11-02T10:03:10.712Z,99.90
2018-11-02T10:05:40.606Z,99.90
2018-11-02T10:08:10.502Z,99.90
2018-11-02T10:10:40.221Z,99.90
2018-11-02T10:13:10.027Z,99.90
2018-11-02T10:15:39.860Z,99.90
2018-11-02T10:18:09.806Z,99.90
2018-11-02T10:20:39.635Z,99.90
2018-11-02T10:23:09.469Z,99.90
2018-11-02T10:25:39.321Z,99.90
2018-11-02T10:28:09.333Z,99.90
2018-11-02T10:30:39.207Z,99.90
2018-11-02T10:33:09.279Z,99.90
2018-11-02T10:35:39.251Z,99.90
2018-11-02T10:38:09.075Z,99.90
2018-11-02T10:40:41.331Z,99.90
2018-11-02T10:43:14.680Z,99.90
2018-11-02T10:45:47.860Z,99.90
2018-11-02T10:48:17.636Z,99.90
2018-11-02T10:50:47.462Z,99.90
2018-11-02T10:53:17.357Z,99.90
2018-11-02T10:55:47.197Z,99.90
2018-11-02T10:58:17.014Z,99.90
2018-11-02T11:00:51.965Z,99.90
2018-11-02T11:03:21.740Z,99.90
2018-11-02T11:05:51.867Z,99.90
2018-11-02T11:08:21.674Z,99.90
2018-11-02T11:10:51.429Z,99.90
2018-11-02T11:13:21.841Z,99.90
2018-11-02T11:15:51.336Z,99.90
2018-11-02T11:18:21.197Z,99.90
2018-11-02T11:20:50.855Z,99.90
2018-11-02T11:23:20.492Z,99.90
2018-11-02T11:25:50.245Z,99.90
2018-11-02T11:28:19.996Z,99.90
2018-11-02T11:30:49.792Z,99.90
2018-11-02T11:33:19.670Z,99.90
2018-11-02T11:35:49.474Z,99.90
2018-11-02T11:38:19.310Z,99.90
2018-11-02T11:40:49.277Z,99.90
2018-11-02T11:43:19.158Z,99.90
2018-11-02T11:45:49.069Z,99.90
2018-11-02T11:48:18.988Z,99.90
2018-11-02T11:50:48.971Z,99.90
2018-11-02T11:53:18.902Z,99.90
2018-11-02T11:55:48.660Z,99.90
2018-11-02T11:58:18.630Z,99.90
2018-11-02T12:00:48.461Z,99.90
2018-11-02T12:03:18.262Z,99.90
2018-11-02T12:05:48.205Z,99.90
2018-11-02T12:08:18.197Z,99.90
2018-11-02T12:10:49.125Z,99.90
2018-11-02T12:13:20.140Z,99.90
2018-11-02T12:15:50.225Z,99.90
2018-11-02T12:18:19.907Z,99.90
2018-11-02T12:20:49.855Z,99.90
2018-11-02T12:23:19.696Z,99.90
2018-11-02T12:25:49.539Z,99.90
2018-11-02T12:28:19.525Z,99.90
2018-11-02T12:30:49.394Z,99.90
2018-11-02T12:33:19.155Z,99.90
2018-11-02T12:35:48.965Z,99.90
2018-11-02T12:38:18.782Z,99.90
2018-11-02T12:40:48.585Z,99.90
2018-11-02T12:43:18.356Z,99.90
2018-11-02T12:45:48.162Z,99.90
2018-11-02T12:48:17.957Z,99.90
2018-11-02T12:50:47.593Z,99.90
2018-11-02T12:53:17.591Z,99.90
2018-11-02T12:55:47.440Z,99.90
2018-11-02T12:58:17.357Z,99.90
2018-11-02T13:00:47.177Z,99.90
2018-11-02T13:03:17.006Z,99.90
2018-11-02T13:05:47.285Z,99.90
2018-11-02T13:08:17.200Z,99.90
2018-11-02T13:10:47.103Z,99.90
2018-11-02T13:13:16.853Z,99.90
2018-11-02T13:15:46.633Z,99.90
2018-11-02T13:18:20.496Z,99.90
2018-11-02T13:20:50.451Z,99.90
2018-11-02T13:23:20.242Z,99.90
2018-11-02T13:25:50.095Z,99.90
2018-11-02T13:28:19.909Z,99.90
2018-11-02T13:30:50.032Z,99.90
2018-11-02T13:33:19.757Z,99.90
2018-11-02T13:35:50.113Z,99.90
2018-11-02T13:38:19.984Z,99.90
2018-11-02T13:40:49.896Z,99.90
2018-11-02T13:43:19.858Z,99.90
2018-11-02T13:45:49.474Z,99.90
2018-11-02T13:48:19.460Z,99.90
2018-11-02T13:50:49.389Z,99.90
2018-11-02T13:53:19.350Z,99.70
2018-11-02T13:55:49.306Z,99.90
2018-11-02T13:58:19.063Z,99.60
2018-11-02T14:00:48.977Z,99.00
2018-11-02T14:03:18.825Z,98.00
2018-11-02T14:05:48.659Z,97.90
2018-11-02T14:08:18.658Z,98.70
2018-11-02T14:10:48.608Z,98.90
2018-11-02T14:13:18.342Z,99.30
2018-11-02T14:15:48.206Z,98.30
2018-11-02T14:18:17.909Z,98.20
2018-11-02T14:20:47.679Z,99.90
2018-11-02T14:23:17.526Z,99.80
2018-11-02T14:25:47.488Z,99.80
2018-11-02T14:28:17.493Z,99.90
2018-11-02T14:30:47.425Z,99.90
2018-11-02T14:33:17.252Z,99.90
2018-11-02T14:35:47.217Z,99.90
2018-11-02T14:38:17.133Z,99.90
2018-11-02T14:40:47.296Z,99.90
2018-11-02T14:43:17.116Z,99.90
2018-11-02T14:45:47.126Z,99.90
2018-11-02T14:48:16.925Z,99.90
2018-11-02T14:50:46.731Z,99.90
2018-11-02T14:53:16.380Z,99.90
2018-11-02T14:55:46.225Z,99.90
2018-11-02T14:58:15.928Z,99.60
2018-11-02T15:00:45.842Z,99.40
2018-11-02T15:03:15.653Z,99.10
2018-11-02T15:05:46.550Z,98.80
2018-11-02T15:08:16.466Z,98.50
2018-11-02T15:10:46.522Z,98.50
2018-11-02T15:13:16.607Z,98.50
2018-11-02T15:15:46.574Z,98.80
2018-11-02T15:18:16.436Z,98.90
2018-11-02T15:20:46.739Z,99.20
2018-11-02T15:23:17.091Z,99.40
2018-11-02T15:25:47.168Z,99.70
2018-11-02T15:28:17.120Z,99.90
2018-11-02T15:30:47.280Z,99.90
2018-11-02T15:33:17.426Z,99.90
2018-11-02T15:35:47.475Z,99.90
2018-11-02T15:38:17.396Z,99.90
2018-11-02T15:40:47.706Z,99.90
2018-11-02T15:43:18.039Z,99.90
2018-11-02T15:45:48.057Z,99.90
2018-11-02T15:48:17.943Z,99.90
2018-11-02T15:50:47.731Z,99.90
2018-11-02T15:53:17.725Z,99.90
2018-11-02T15:55:47.650Z,99.90
2018-11-02T15:58:17.632Z,99.90
2018-11-02T16:00:47.504Z,99.90
2018-11-02T16:03:17.275Z,99.90
2018-11-02T16:05:47.044Z,99.90
2018-11-02T16:08:17.006Z,99.90
2018-11-02T16:10:46.890Z,99.90
2018-11-02T16:13:16.972Z,99.90
2018-11-02T16:15:46.797Z,99.90
2018-11-02T16:18:16.576Z,99.90
2018-11-02T16:20:46.526Z,99.90
2018-11-02T16:23:16.434Z,99.90
2018-11-02T16:25:46.317Z,99.90
2018-11-02T16:28:16.028Z,99.90
2018-11-02T16:30:45.966Z,99.90
2018-11-02T16:33:16.063Z,99.90
2018-11-02T16:35:45.851Z,99.90
2018-11-02T16:38:15.710Z,99.90
2018-11-02T16:40:45.543Z,99.90
2018-11-02T16:43:15.559Z,99.90
2018-11-02T16:45:45.525Z,99.90
2018-11-02T16:48:15.468Z,99.90
2018-11-02T16:50:45.210Z,99.90
2018-11-02T16:53:15.140Z,99.90
2018-11-02T16:55:45.126Z,99.90
2018-11-02T16:58:15.052Z,99.90
2018-11-02T17:00:44.969Z,99.90
2018-11-02T17:03:15.205Z,99.90
2018-11-02T17:05:45.328Z,99.90
2018-11-02T17:08:15.367Z,99.90
2018-11-02T17:10:45.240Z,99.90
2018-11-02T17:13:15.027Z,99.90
2018-11-02T17:15:44.913Z,99.90
2018-11-02T17:18:14.735Z,99.90
2018-11-02T17:20:45.650Z,99.90
2018-11-02T17:23:16.576Z,99.90
2018-11-02T17:25:46.407Z,99.90
2018-11-02T17:28:16.463Z,99.90
2018-11-02T17:30:46.279Z,99.90
2018-11-02T17:33:16.282Z,99.90
2018-11-02T17:35:46.607Z,99.90
2018-11-02T17:38:16.403Z,99.90
2018-11-02T17:40:46.130Z,99.90
2018-11-02T17:43:16.111Z,99.90
2018-11-02T17:45:46.040Z,99.90
2018-11-02T17:48:16.087Z,99.90
2018-11-02T17:50:46.191Z,99.90
2018-11-02T17:53:16.103Z,99.90
2018-11-02T17:55:45.908Z,99.90
2018-11-02T17:58:15.802Z,99.90
2018-11-02T18:00:45.844Z,99.90
2018-11-02T18:03:15.766Z,99.90
2018-11-02T18:05:45.849Z,99.90
2018-11-02T18:08:15.966Z,99.90
2018-11-02T18:10:46.053Z,99.90
2018-11-02T18:13:15.941Z,99.90
2018-11-02T18:15:45.927Z,99.90
2018-11-02T18:18:16.377Z,99.90
2018-11-02T18:20:47.356Z,99.90
2018-11-02T18:23:17.308Z,99.90
2018-11-02T18:25:47.347Z,99.90
2018-11-02T18:28:17.449Z,99.90
2018-11-02T18:30:47.400Z,99.90
2018-11-02T18:33:17.188Z,99.90
2018-11-02T18:35:46.989Z,99.90
2018-11-02T18:38:17.208Z,99.90
2018-11-02T18:40:47.036Z,99.90
2018-11-02T18:43:17.122Z,99.90
2018-11-02T18:45:47.079Z,99.90
2018-11-02T18:48:17.222Z,99.90
2018-11-02T18:50:47.192Z,99.90
2018-11-02T18:53:17.278Z,99.90
2018-11-02T18:55:47.117Z,99.90
2018-11-02T18:58:17.186Z,99.90
2018-11-02T19:00:47.158Z,99.90
2018-11-02T19:03:17.259Z,99.90
2018-11-02T19:05:47.374Z,99.90
2018-11-02T19:08:17.145Z,99.90
2018-11-02T19:10:46.940Z,99.90
2018-11-02T19:13:16.729Z,99.90
2018-11-02T19:15:46.660Z,99.90
2018-11-02T19:18:16.569Z,99.90
2018-11-02T19:20:46.539Z,99.90
2018-11-02T19:23:16.518Z,99.90
2018-11-02T19:25:46.553Z,99.90
2018-11-02T19:28:16.444Z,99.90
2018-11-02T19:30:46.384Z,99.90
2018-11-02T19:33:16.298Z,99.90
2018-11-02T19:35:46.353Z,99.90
2018-11-02T19:38:16.459Z,99.90
2018-11-02T19:40:46.518Z,99.90
2018-11-02T19:43:16.439Z,99.90
2018-11-02T19:45:46.461Z,99.90
2018-11-02T19:48:16.447Z,99.90
2018-11-02T19:50:46.500Z,99.90
2018-11-02T19:53:16.390Z,99.90
2018-11-02T19:55:46.473Z,99.90
2018-11-02T19:58:16.221Z,99.90
2018-11-02T20:00:46.093Z,99.90
2018-11-02T20:03:15.878Z,99.90
2018-11-02T20:05:45.777Z,99.90
2018-11-02T20:08:15.725Z,99.90
2018-11-02T20:10:45.705Z,99.90
2018-11-02T20:13:15.980Z,99.90
2018-11-02T20:15:45.923Z,99.90
2018-11-02T20:18:15.763Z,99.90
2018-11-02T20:20:45.873Z,99.90
2018-11-02T20:23:15.758Z,99.90
2018-11-02T20:25:45.603Z,99.90
2018-11-02T20:28:15.375Z,99.90
2018-11-02T20:30:45.223Z,99.90
2018-11-02T20:33:15.434Z,99.90
2018-11-02T20:35:46.683Z,99.90
2018-11-02T20:38:16.478Z,99.90
2018-11-02T20:40:46.424Z,99.90
2018-11-02T20:43:16.233Z,99.90
2018-11-02T20:45:46.139Z,99.90
2018-11-02T20:48:16.329Z,99.90
2018-11-02T20:50:46.297Z,99.90
2018-11-02T20:53:16.311Z,99.90
2018-11-02T20:55:46.234Z,99.90
2018-11-02T20:58:16.374Z,99.90
2018-11-02T21:00:46.202Z,99.90
2018-11-02T21:03:15.928Z,99.90
2018-11-02T21:05:46.484Z,99.90
2018-11-02T21:08:17.642Z,99.90
2018-11-02T21:10:47.539Z,99.90
2018-11-02T21:13:17.623Z,99.90
2018-11-02T21:15:47.764Z,99.90
2018-11-02T21:18:17.737Z,99.90
2018-11-02T21:20:48.312Z,99.90
2018-11-02T21:23:18.283Z,99.90
2018-11-02T21:25:48.700Z,99.90
2018-11-02T21:28:19.039Z,99.90
2018-11-02T21:30:49.265Z,99.90
2018-11-02T21:33:19.793Z,99.90
2018-11-02T21:35:49.911Z,99.90
2018-11-02T21:38:20.584Z,99.90
2018-11-02T21:40:50.720Z,99.90
2018-11-02T21:43:20.808Z,99.90
2018-11-02T21:45:51.118Z,99.90
2018-11-02T21:48:21.569Z,99.90
2018-11-02T21:50:51.695Z,99.90
2018-11-02T21:53:22.112Z,99.90
2018-11-02T21:55:52.278Z,99.90
2018-11-02T21:58:22.418Z,99.90
2018-11-02T22:00:52.325Z,99.90
2018-11-02T22:03:22.414Z,99.90
2018-11-02T22:05:52.891Z,99.90
2018-11-02T22:08:22.910Z,99.90
2018-11-02T22:10:53.384Z,99.90
2018-11-02T22:13:23.277Z,99.90
2018-11-02T22:15:53.503Z,99.90
2018-11-02T22:18:24.572Z,99.90
2018-11-02T22:20:55.684Z,99.90
2018-11-02T22:28:23.727Z,99.90
2018-11-02T22:30:53.867Z,99.90
2018-11-02T22:33:24.138Z,99.90
2018-11-02T22:35:54.354Z,99.90
2018-11-02T22:38:24.543Z,99.90
2018-11-02T22:40:54.620Z,99.90
2018-11-02T22:43:24.609Z,99.90
2018-11-02T22:45:55.788Z,99.90
2018-11-02T22:48:26.729Z,99.90
2018-11-02T22:50:57.598Z,99.90
2018-11-02T22:53:27.564Z,99.90
2018-11-02T22:55:57.565Z,99.90
2018-11-02T22:58:27.722Z,99.90
2018-11-02T23:01:02.891Z,99.90
2018-11-02T23:03:32.893Z,99.90
2018-11-02T23:06:02.988Z,99.90
2018-11-02T23:08:32.992Z,99.90
2018-11-02T23:11:02.959Z,99.90
2018-11-02T23:13:33.133Z,99.90
2018-11-02T23:16:03.193Z,99.90
2018-11-02T23:18:33.283Z,99.90
2018-11-02T23:21:03.256Z,99.90
2018-11-02T23:23:33.309Z,99.90
2018-11-02T23:26:03.667Z,99.90
2018-11-02T23:28:33.718Z,99.90
2018-11-02T23:31:03.800Z,99.90
2018-11-02T23:33:33.804Z,99.90
2018-11-02T23:36:03.715Z,99.90
2018-11-02T23:38:34.613Z,99.90
2018-11-02T23:41:04.553Z,99.90
2018-11-02T23:43:34.474Z,99.90
2018-11-02T23:46:04.551Z,99.90
2018-11-02T23:48:34.562Z,99.90
2018-11-02T23:51:04.547Z,99.90
2018-11-02T23:53:34.789Z,99.90
2018-11-02T23:56:04.790Z,99.90
2018-11-02T23:58:34.778Z,99.90
